Time,TemperatureF,DewpointF,PressureIn,WindDirection,WindDirectionDegrees,WindSpeedMPH,WindSpeedGustMPH,Humidity,HourlyPrecipIn,Conditions,Clouds,dailyrainin,SolarRadiationWatts/m^2,SoftwareType,DateUTC
2013-07-06 00:01:00,57.0,46.0,-100.00,ENE,63,2.0,4.0,66,0.00,,,0.00,0.000000,,2013-07-06 07:01:00,
2013-07-06 00:12:00,57.0,46.0,-100.00,ENE,63,2.0,4.0,66,0.00,,,0.00,0.000000,,2013-07-06 07:12:00,
2013-07-06 00:44:00,55.0,45.0,-100.00,NNW,337,1.0,4.0,70,0.00,,,-99.99,0.000000,,2013-07-06 07:44:00,
2013-07-06 00:52:00,55.0,45.0,-100.00,NNW,337,1.0,4.0,70,0.00,,,-99.99,0.000000,,2013-07-06 07:52:00,
2013-07-06 01:02:00,55.0,45.0,-100.00,NNW,337,1.0,4.0,70,0.00,,,-99.99,0.000000,,2013-07-06 08:02:00,
2013-07-06 01:43:00,53.0,46.0,-100.00,SSW,209,2.0,3.0,77,0.00,,,0.00,0.000000,,2013-07-06 08:43:00,
2013-07-06 01:54:00,53.0,46.0,-100.00,SSW,209,2.0,3.0,77,0.00,,,0.00,0.000000,,2013-07-06 08:54:00,
2013-07-06 02:43:00,54.0,46.0,-100.00,SSW,202,1.0,4.0,74,0.00,,,-99.99,0.000000,,2013-07-06 09:43:00,
2013-07-06 02:53:00,54.0,46.0,-100.00,SSW,202,1.0,4.0,74,0.00,,,-99.99,0.000000,,2013-07-06 09:53:00,
2013-07-06 03:02:00,54.0,46.0,-100.00,SSW,202,1.0,4.0,74,0.00,,,-99.99,0.000000,,2013-07-06 10:02:00,
2013-07-06 03:11:00,54.0,46.0,-100.00,SSW,202,1.0,4.0,74,0.00,,,-99.99,0.000000,,2013-07-06 10:11:00,
2013-07-06 03:43:00,53.0,46.0,-100.00,SW,224,2.0,4.0,77,0.00,,,0.00,0.000000,,2013-07-06 10:43:00,
2013-07-06 03:53:00,53.0,46.0,-100.00,SW,224,2.0,4.0,77,0.00,,,0.00,0.000000,,2013-07-06 10:53:00,
2013-07-06 04:11:00,53.0,46.0,-100.00,SW,224,2.0,4.0,77,0.00,,,0.00,0.000000,,2013-07-06 11:11:00,
2013-07-06 04:43:00,52.0,45.0,-100.00,NNE,20,1.0,4.0,78,0.00,,,0.00,0.000000,,2013-07-06 11:43:00,
2013-07-06 06:43:00,55.0,48.0,-100.00,SW,220,1.0,3.0,78,-99.99,,,0.00,40.000000,,2013-07-06 13:43:00,
2013-07-06 06:52:00,55.0,48.0,-100.00,SW,220,1.0,3.0,78,-99.99,,,0.00,40.000000,,2013-07-06 13:52:00,
2013-07-06 07:02:00,55.0,48.0,-100.00,SW,220,1.0,3.0,78,-99.99,,,0.00,40.000000,,2013-07-06 14:02:00,
2013-07-06 07:11:00,55.0,48.0,-100.00,SW,220,1.0,3.0,78,-99.99,,,0.00,40.000000,,2013-07-06 14:11:00,
2013-07-06 07:42:00,61.0,50.0,-100.00,NNE,27,0.0,3.0,67,0.00,,,0.00,100.000000,,2013-07-06 14:42:00,
2013-07-06 07:53:00,61.0,50.0,-100.00,NNE,27,0.0,3.0,67,0.00,,,0.00,100.000000,,2013-07-06 14:53:00,
2013-07-06 08:02:00,61.0,50.0,-100.00,NNE,27,0.0,3.0,67,0.00,,,0.00,100.000000,,2013-07-06 15:02:00,
2013-07-06 08:12:00,61.0,50.0,-100.00,NNE,27,0.0,3.0,67,0.00,,,0.00,100.000000,,2013-07-06 15:12:00,
2013-07-06 08:43:00,71.0,51.0,-100.00,SE,124,3.0,6.0,50,0.00,,,0.00,271.000000,,2013-07-06 15:43:00,
2013-07-06 08:53:00,71.0,51.0,-100.00,SE,124,3.0,6.0,50,0.00,,,0.00,271.000000,,2013-07-06 15:53:00,
2013-07-06 09:12:00,71.0,51.0,-100.00,SE,124,3.0,6.0,50,0.00,,,0.00,271.000000,,2013-07-06 16:12:00,
2013-07-06 09:58:00,76.0,51.0,-100.00,SSW,209,5.0,12.0,41,0.00,,,0.00,551.000000,,2013-07-06 16:58:00,
2013-07-06 10:05:00,76.0,51.0,-100.00,SSW,209,5.0,12.0,41,0.00,,,0.00,551.000000,,2013-07-06 17:05:00,
2013-07-06 10:14:00,76.0,51.0,-100.00,SSW,209,5.0,12.0,41,0.00,,,0.00,551.000000,,2013-07-06 17:14:00,
2013-07-06 11:05:00,78.0,51.0,-100.00,SW,235,8.0,15.0,39,0.00,,,0.00,664.000000,,2013-07-06 18:05:00,
2013-07-06 11:15:00,78.0,51.0,-100.00,SW,235,8.0,15.0,39,0.00,,,0.00,664.000000,,2013-07-06 18:15:00,
2013-07-06 11:59:00,80.0,50.0,-100.00,SSW,211,13.0,19.0,35,0.00,,,0.00,837.000000,,2013-07-06 18:59:00,
2013-07-06 12:05:00,80.0,50.0,-100.00,SSW,211,13.0,19.0,35,0.00,,,0.00,837.000000,,2013-07-06 19:05:00,
2013-07-06 12:14:00,80.0,50.0,-100.00,SSW,211,13.0,19.0,35,0.00,,,0.00,837.000000,,2013-07-06 19:14:00,
2013-07-06 12:57:00,81.0,49.0,-100.00,SW,224,10.0,20.0,33,0.00,,,0.00,800.000000,,2013-07-06 19:57:00,
2013-07-06 13:14:00,81.0,49.0,-100.00,SW,224,10.0,20.0,33,0.00,,,0.00,800.000000,,2013-07-06 20:14:00,
2013-07-06 13:59:00,80.0,48.0,-100.00,SW,220,11.0,20.0,33,0.00,,,0.00,518.000000,,2013-07-06 20:59:00,
2013-07-06 14:05:00,80.0,48.0,-100.00,SW,220,11.0,20.0,33,0.00,,,0.00,518.000000,,2013-07-06 21:05:00,
2013-07-06 14:14:00,80.0,48.0,-100.00,SW,220,11.0,20.0,33,0.00,,,0.00,518.000000,,2013-07-06 21:14:00,
2013-07-06 14:59:00,74.0,46.0,-100.00,NE,35,6.0,19.0,37,0.00,,,0.00,239.000000,,2013-07-06 21:59:00,
2013-07-06 15:06:00,74.0,46.0,-100.00,NE,35,6.0,19.0,37,0.00,,,0.00,239.000000,,2013-07-06 22:06:00,
2013-07-06 15:59:00,64.0,52.0,-100.00,NNE,27,13.0,21.0,64,0.07,,,0.07,82.000000,,2013-07-06 22:59:00,
2013-07-06 16:05:00,64.0,52.0,-100.00,NNE,27,13.0,21.0,64,0.07,,,0.07,82.000000,,2013-07-06 23:05:00,
2013-07-06 16:57:00,63.0,53.0,-100.00,ENE,76,10.0,20.0,69,0.00,,,0.07,172.000000,,2013-07-06 23:57:00,
2013-07-06 17:06:00,63.0,53.0,-100.00,ENE,76,10.0,20.0,69,0.00,,,0.07,172.000000,,2013-07-07 00:06:00,
2013-07-06 18:57:00,61.0,57.0,-100.00,North,5,6.0,11.0,87,-99.99,,,0.09,100.000000,,2013-07-07 01:57:00,
2013-07-06 19:05:00,61.0,57.0,-100.00,North,5,6.0,11.0,87,-99.99,,,0.09,100.000000,,2013-07-07 02:05:00,
2013-07-06 19:52:00,62.0,55.0,-100.00,SSE,153,5.0,8.0,78,0.00,,,0.09,62.000000,,2013-07-07 02:52:00,
2013-07-06 20:04:00,62.0,55.0,-100.00,SSE,153,5.0,8.0,78,0.00,,,0.09,62.000000,,2013-07-07 03:04:00,
2013-07-06 20:53:00,57.0,53.0,-100.00,SSW,208,2.0,6.0,88,0.00,,,0.09,7.000000,,2013-07-07 03:53:00,
2013-07-06 21:01:00,57.0,53.0,-100.00,SSW,208,2.0,6.0,88,0.00,,,0.09,7.000000,,2013-07-07 04:01:00,
2013-07-06 21:11:00,57.0,53.0,-100.00,SSW,208,2.0,6.0,88,0.00,,,0.09,7.000000,,2013-07-07 04:11:00,
2013-07-06 21:41:00,54.0,53.0,-100.00,WSW,239,0.0,5.0,95,0.00,,,0.09,0.000000,,2013-07-07 04:41:00,
2013-07-06 21:51:00,54.0,53.0,-100.00,WSW,239,0.0,5.0,95,0.00,,,0.09,0.000000,,2013-07-07 04:51:00,
2013-07-06 22:01:00,54.0,53.0,-100.00,WSW,239,0.0,5.0,95,0.00,,,0.09,0.000000,,2013-07-07 05:01:00,
2013-07-06 22:11:00,54.0,53.0,-100.00,WSW,239,0.0,5.0,95,0.00,,,0.09,0.000000,,2013-07-07 05:11:00,
2013-07-06 22:41:00,52.0,51.0,-100.00,SW,217,4.0,5.0,98,0.01,,,0.10,0.000000,,2013-07-07 05:41:00,
2013-07-06 22:51:00,52.0,51.0,-100.00,SW,217,4.0,5.0,98,0.01,,,0.10,0.000000,,2013-07-07 05:51:00,
2013-07-06 23:01:00,52.0,51.0,-100.00,SW,217,4.0,5.0,98,0.01,,,0.10,0.000000,,2013-07-07 06:01:00,
2013-07-06 23:11:00,52.0,51.0,-100.00,SW,217,4.0,5.0,98,0.01,,,0.10,0.000000,,2013-07-07 06:11:00,
2013-07-06 23:43:00,51.0,51.0,-100.00,SSW,197,2.0,4.0,99,0.00,,,0.10,0.000000,,2013-07-07 06:43:00,
2013-07-06 23:52:00,51.0,51.0,-100.00,SSW,197,2.0,4.0,99,0.00,,,0.10,0.000000,,2013-07-07 06:52:00,